Terminal Aerodrome Forecast
Issued by NWS Sioux Falls, SD

Home | Current Version | Previous Version | Graphics & Text | Print | Product List | Glossary Off
Versions: 1 2 3 4 5 6 7 8 9 10 11 12 13 14 15 16 17 18 19 20 21

878
FTUS43 KFSD 232320
TAFFSD
TAF
KFSD 232320Z 2400/2424 02021G29KT 1SM BLSN OVC010
      TEMPO 2400/2404 1/2SM SN BLSN
     FM241100 01021G33KT 2SM -SN BLSN BKN025
     FM241600 36019G31KT 6SM BLSN OVC080
     FM241900 35019G31KT P6SM BKN130=

USA.gov is the U.S. government's official web portal to all federal, state and local government web resources and services.